createdAt,value
2019-05-06T10:18:08.773Z,49.00
2019-05-06T10:20:42.274Z,51.30
2019-05-06T10:23:11.705Z,56.70
2019-05-06T10:25:43.372Z,59.80
2019-05-06T10:28:23.281Z,62.30
2019-05-06T10:30:52.313Z,62.50
2019-05-06T10:33:22.707Z,61.10
2019-05-06T10:35:53.021Z,60.20
2019-05-06T10:38:46.785Z,61.90
2019-05-06T10:41:22.202Z,63.70
2019-05-06T10:44:03.291Z,63.20
2019-05-06T10:46:32.036Z,63.40
2019-05-06T10:49:02.593Z,63.60
2019-05-06T10:51:39.337Z,65.80
2019-05-06T10:54:08.103Z,66.10
2019-05-06T10:57:04.767Z,68.20
2019-05-06T10:59:33.604Z,66.00
2019-05-06T11:02:27.424Z,67.40
2019-05-06T11:04:56.271Z,68.10
2019-05-06T11:07:31.372Z,68.60
2019-05-06T11:09:56.108Z,69.40
2019-05-06T11:12:38.661Z,65.30
2019-05-06T11:15:15.224Z,63.90
2019-05-06T11:18:06.268Z,64.50
2019-05-06T11:25:23.005Z,58.30
2019-05-06T11:27:52.629Z,56.90
2019-05-06T11:30:42.369Z,57.40
2019-05-06T11:33:22.628Z,58.30
2019-05-06T11:35:54.239Z,53.60
2019-05-06T11:38:23.028Z,55.00
2019-05-06T11:40:52.931Z,54.20
2019-05-06T11:43:22.899Z,55.10
2019-05-06T11:45:52.266Z,53.60
2019-05-06T11:48:22.274Z,52.40
2019-05-06T11:50:53.655Z,50.30
2019-05-06T11:53:23.125Z,52.00
2019-05-06T11:55:54.649Z,52.10
2019-05-06T11:58:42.826Z,51.60
2019-05-06T12:01:17.838Z,50.50
2019-05-06T12:03:46.600Z,50.90
2019-05-06T12:06:15.354Z,52.20
2019-05-06T12:08:44.155Z,56.30
2019-05-06T12:11:12.904Z,59.20
2019-05-06T12:13:42.556Z,60.00
2019-05-06T12:16:14.096Z,61.00
2019-05-06T12:18:42.452Z,60.60
2019-05-06T12:21:18.490Z,59.00
2019-05-06T12:23:44.807Z,55.30
2019-05-06T12:26:13.181Z,59.80
2019-05-06T12:28:43.433Z,62.60
2019-05-06T12:31:12.781Z,61.90
2019-05-06T12:33:46.827Z,61.20
2019-05-06T12:36:24.983Z,60.40
2019-05-06T12:39:16.116Z,60.80
2019-05-06T12:42:14.842Z,57.10
2019-05-06T12:44:58.697Z,56.90
2019-05-06T12:47:33.534Z,59.20
2019-05-06T12:50:02.883Z,61.90
2019-05-06T12:52:32.386Z,60.80
2019-05-06T12:55:17.556Z,59.80
2019-05-06T12:57:34.451Z,61.00
2019-05-06T13:00:03.596Z,60.50
2019-05-06T13:02:32.900Z,61.20
2019-05-06T13:05:04.051Z,59.60
2019-05-06T13:07:38.753Z,58.90
2019-05-06T13:10:07.635Z,57.20
2019-05-06T13:12:38.059Z,58.90
2019-05-06T13:15:08.105Z,57.70
2019-05-06T13:17:37.345Z,56.50
2019-05-06T13:20:08.418Z,58.30
2019-05-06T13:22:45.247Z,59.60
2019-05-06T13:25:14.594Z,59.40
2019-05-06T13:27:44.325Z,60.60
2019-05-06T13:30:13.352Z,60.90
2019-05-06T13:32:46.420Z,61.90
2019-05-06T13:35:15.551Z,61.40
2019-05-06T13:37:44.292Z,63.70
2019-05-06T13:40:13.462Z,65.90
2019-05-06T13:42:47.587Z,65.20
2019-05-06T13:45:16.410Z,65.10
2019-05-06T13:48:03.828Z,66.40
2019-05-06T13:50:34.627Z,67.30
2019-05-06T13:53:11.511Z,65.60
2019-05-06T13:55:35.792Z,67.10
2019-05-06T13:58:04.711Z,66.30
2019-05-06T14:00:35.074Z,67.30
2019-05-06T14:03:04.118Z,66.70
2019-05-06T14:05:33.093Z,65.20
2019-05-06T14:08:04.699Z,64.70
2019-05-06T14:10:32.864Z,65.20
2019-05-06T14:13:02.505Z,62.40
2019-05-06T14:15:32.538Z,60.90
2019-05-06T14:18:02.636Z,62.10
2019-05-06T14:20:33.358Z,61.20
2019-05-06T14:23:02.329Z,61.90
2019-05-06T14:26:04.192Z,62.10
2019-05-06T14:28:43.034Z,63.90
2019-05-06T14:31:40.075Z,62.90
2019-05-06T14:34:08.967Z,63.20
2019-05-06T14:36:37.786Z,61.70
2019-05-06T14:39:09.291Z,60.70
2019-05-06T14:41:40.008Z,61.40
2019-05-06T14:44:09.407Z,60.60
2019-05-06T14:46:56.510Z,60.30
2019-05-06T14:49:25.243Z,59.00
2019-05-06T14:51:53.992Z,59.70
2019-05-06T14:54:22.718Z,60.10
2019-05-06T14:56:55.974Z,61.30
2019-05-06T14:59:24.859Z,62.10
2019-05-06T15:01:53.966Z,60.60
2019-05-06T15:04:23.127Z,62.90
2019-05-06T15:06:53.011Z,61.80
2019-05-06T15:09:22.683Z,60.90
2019-05-06T15:11:51.599Z,59.50
2019-05-06T15:14:22.713Z,60.30
2019-05-06T15:16:52.752Z,60.30
2019-05-06T15:19:22.802Z,59.70
2019-05-06T15:21:53.120Z,59.60
2019-05-06T15:24:24.407Z,59.40
2019-05-06T15:26:52.895Z,60.00
2019-05-06T15:29:23.707Z,60.60
2019-05-06T15:32:14.219Z,61.40
2019-05-06T15:35:02.506Z,61.50
2019-05-06T15:37:42.585Z,60.90
2019-05-06T15:40:12.260Z,62.40
2019-05-06T15:42:42.503Z,63.00
2019-05-06T15:45:12.692Z,64.00
2019-05-06T15:47:42.602Z,65.00
2019-05-06T15:50:12.762Z,65.30
2019-05-06T15:52:43.551Z,67.90
2019-05-06T15:55:12.855Z,66.20
2019-05-06T15:57:43.543Z,66.20
2019-05-06T16:00:14.397Z,64.80
2019-05-06T16:02:43.395Z,65.30
2019-05-06T16:05:18.858Z,65.50
2019-05-06T16:07:43.468Z,64.70
2019-05-06T16:10:13.357Z,64.90
2019-05-06T16:12:46.598Z,64.50
2019-05-06T16:15:16.143Z,65.70
2019-05-06T16:17:45.047Z,66.20
2019-05-06T16:20:14.062Z,64.80
2019-05-06T16:22:44.600Z,64.40
2019-05-06T16:25:14.551Z,64.40
2019-05-06T16:27:44.439Z,64.60
2019-05-06T16:30:15.764Z,64.00
2019-05-06T16:32:44.639Z,62.30
2019-05-06T16:35:14.335Z,64.20
2019-05-06T16:37:43.321Z,61.80
2019-05-06T16:40:12.616Z,61.70
2019-05-06T16:42:45.370Z,62.90
2019-05-06T16:45:12.654Z,61.40
2019-05-06T16:47:44.442Z,60.10
2019-05-06T16:50:13.546Z,62.70
2019-05-06T16:52:45.088Z,61.50
2019-05-06T16:55:17.807Z,61.10
2019-05-06T16:58:02.240Z,62.10
2019-05-06T17:00:32.249Z,63.30
2019-05-06T17:03:09.417Z,63.40
2019-05-06T17:06:04.874Z,66.60
2019-05-06T17:08:36.536Z,64.80
2019-05-06T17:11:04.795Z,64.10
2019-05-06T17:13:37.446Z,64.50
2019-05-06T17:16:04.466Z,64.50
2019-05-06T17:18:33.327Z,65.00
2019-05-06T17:21:02.072Z,64.80
2019-05-06T17:23:32.405Z,65.40
2019-05-06T17:26:01.375Z,64.60
2019-05-06T17:28:36.203Z,63.80
2019-05-06T17:31:23.232Z,64.70
2019-05-06T17:33:52.929Z,65.20
2019-05-06T17:36:23.369Z,64.80
2019-05-06T17:38:52.642Z,64.10
2019-05-06T17:41:23.718Z,63.50
2019-05-06T17:43:52.247Z,63.80
2019-05-06T17:46:23.231Z,63.20
2019-05-06T17:48:56.316Z,63.20
2019-05-06T17:51:30.491Z,64.60
2019-05-06T17:54:00.512Z,63.00
2019-05-06T17:56:29.283Z,64.00
2019-05-06T17:58:58.099Z,62.90
2019-05-06T18:01:35.676Z,62.60
2019-05-06T18:04:04.875Z,62.40
2019-05-06T18:06:33.879Z,61.70
2019-05-06T18:09:02.840Z,60.40
2019-05-06T18:11:33.243Z,61.90
2019-05-06T18:14:04.034Z,63.00
2019-05-06T18:16:33.611Z,62.40
2019-05-06T18:19:03.271Z,62.50
2019-05-06T18:21:32.350Z,62.90
2019-05-06T18:24:02.954Z,63.80
2019-05-06T18:26:33.296Z,63.20
2019-05-06T18:29:02.406Z,63.80
2019-05-06T18:31:33.419Z,63.80
2019-05-06T18:34:03.015Z,63.60
2019-05-06T18:36:32.307Z,64.30
2019-05-06T18:39:03.149Z,64.00
2019-05-06T18:41:32.913Z,64.50
2019-05-06T18:44:02.559Z,63.70
2019-05-06T18:46:32.722Z,63.70
2019-05-06T18:49:02.537Z,65.00
2019-05-06T18:51:31.897Z,64.40
2019-05-06T18:54:02.912Z,65.60
2019-05-06T18:56:32.000Z,64.80
2019-05-06T18:59:02.863Z,64.90
2019-05-06T19:01:33.142Z,65.70
2019-05-06T19:04:22.468Z,65.70
2019-05-06T19:07:08.788Z,65.40
2019-05-06T19:09:36.353Z,66.10
2019-05-06T19:12:05.528Z,66.40
2019-05-06T19:14:34.580Z,66.30
2019-05-06T19:17:03.912Z,65.90
2019-05-06T19:19:34.962Z,66.60
2019-05-06T19:22:03.504Z,66.10
2019-05-06T19:24:33.716Z,66.90
2019-05-06T19:27:02.854Z,68.00
2019-05-06T19:29:32.778Z,69.20
2019-05-06T19:32:03.138Z,70.30
2019-05-06T19:34:34.475Z,70.70
2019-05-06T19:37:03.147Z,70.10
2019-05-06T19:39:33.025Z,70.60
2019-05-06T19:42:02.945Z,70.50
2019-05-06T19:44:33.236Z,70.70
2019-05-06T19:47:02.640Z,71.30
2019-05-06T19:49:32.802Z,71.30
2019-05-06T19:52:03.147Z,71.90
2019-05-06T19:54:33.164Z,72.10
2019-05-06T19:57:02.702Z,72.70
2019-05-06T19:59:33.130Z,72.70
2019-05-06T20:02:05.032Z,72.70
2019-05-06T20:04:35.217Z,72.80
2019-05-06T20:07:27.094Z,73.30
2019-05-06T20:10:23.101Z,73.90
2019-05-06T20:12:58.341Z,74.50
2019-05-06T20:15:33.867Z,75.00
2019-05-06T20:18:06.463Z,75.50
2019-05-06T20:20:35.837Z,75.70
2019-05-06T20:23:12.545Z,75.70
2019-05-06T20:25:42.616Z,75.90
2019-05-06T20:28:13.135Z,76.00
2019-05-06T20:30:42.488Z,76.10
2019-05-06T20:33:12.451Z,75.70
2019-05-06T20:35:43.230Z,75.80
2019-05-06T20:38:12.363Z,75.90
2019-05-06T20:40:43.011Z,75.90
2019-05-06T20:43:19.617Z,75.80
2019-05-06T20:45:43.149Z,75.80
2019-05-06T20:48:12.915Z,76.10
2019-05-06T20:50:42.894Z,76.10
2019-05-06T20:53:12.239Z,76.70
2019-05-06T20:55:43.316Z,76.10
2019-05-06T20:58:12.315Z,75.80
2019-05-06T21:00:42.909Z,76.70
2019-05-06T21:03:12.334Z,76.20
2019-05-06T21:05:43.426Z,76.10
2019-05-06T21:08:13.003Z,76.20
2019-05-06T21:10:42.679Z,76.40
2019-05-06T21:13:13.284Z,77.10
2019-05-06T21:15:43.175Z,75.70
2019-05-06T21:18:12.391Z,75.00
2019-05-06T21:20:43.375Z,75.40
2019-05-06T21:23:11.835Z,75.00
2019-05-06T21:25:42.930Z,76.50
2019-05-06T21:28:12.170Z,77.20
2019-05-06T21:30:42.892Z,76.50
2019-05-06T21:33:12.510Z,77.20
2019-05-06T21:35:42.384Z,77.30
2019-05-06T21:38:12.119Z,77.50
2019-05-06T21:40:43.143Z,77.90
2019-05-06T21:43:13.039Z,77.90
2019-05-06T21:45:42.589Z,78.10
2019-05-06T21:48:13.670Z,78.30
2019-05-06T21:50:42.772Z,78.10
2019-05-06T21:53:14.450Z,77.60
2019-05-06T21:55:42.442Z,78.00
2019-05-06T21:58:12.403Z,79.00
2019-05-06T22:00:47.212Z,78.40
2019-05-06T22:03:16.195Z,79.00
2019-05-06T22:05:45.079Z,78.90
2019-05-06T22:08:13.828Z,79.00
2019-05-06T22:10:42.629Z,78.90
2019-05-06T22:13:14.327Z,79.90
2019-05-06T22:15:42.282Z,80.40
2019-05-06T22:18:12.507Z,79.50
2019-05-06T22:20:59.190Z,79.80
2019-05-06T22:23:47.512Z,80.80
2019-05-06T22:26:16.452Z,80.60
2019-05-06T22:28:45.274Z,79.50
2019-05-06T22:31:14.379Z,79.30
2019-05-06T22:33:43.274Z,79.10
2019-05-06T22:36:13.168Z,79.40
2019-05-06T22:38:44.230Z,78.60
2019-05-06T22:41:12.872Z,79.20
2019-05-06T22:43:42.378Z,79.30
2019-05-06T22:46:12.329Z,79.70
2019-05-06T22:48:43.326Z,80.00
2019-05-06T22:51:12.510Z,79.70
2019-05-06T22:53:42.517Z,78.60
2019-05-06T22:56:14.057Z,79.00
2019-05-06T22:58:43.637Z,79.10
2019-05-06T23:01:49.630Z,79.90
2019-05-06T23:04:19.551Z,79.10
2019-05-06T23:07:07.566Z,78.50
2019-05-06T23:09:36.416Z,77.90
2019-05-06T23:12:05.264Z,77.40
2019-05-06T23:14:36.839Z,77.70
2019-05-06T23:17:04.639Z,80.90
2019-05-06T23:19:33.438Z,81.50
2019-05-06T23:22:04.211Z,81.30
2019-05-06T23:24:32.803Z,79.40
2019-05-06T23:27:02.353Z,78.50
2019-05-06T23:29:31.388Z,79.90
2019-05-06T23:32:02.765Z,79.00
2019-05-06T23:34:32.476Z,78.40
2019-05-06T23:37:25.815Z,77.70
2019-05-06T23:40:34.035Z,78.00
2019-05-06T23:43:38.795Z,77.60
2019-05-06T23:46:43.854Z,77.60
2019-05-06T23:49:48.883Z,77.60
2019-05-06T23:52:54.003Z,77.80
2019-05-06T23:55:59.195Z,79.50
2019-05-06T23:58:26.647Z,80.40
